• Join FlightAware (Why Join?)
  • Login
  • US Flag 
09:43AM EDT


 

Airport Tracker/Info


-or-


 

Live Flight TrackerFlight Track Log ✈ EJA574 ✈ 05-May-2013 ✈ KAGS - KLNK

Flight Track Log - Related Links

Times and Time Zones

All times are in EDT time to prevent confusion due to time zone crossing. See the EJA574 flight status page for this flight to view local times or setup timezone preferences in your user account.

Time Position Orientation Groundspeed Altitude Reporting Facility
EDT Latitude Longitude Course Direction KTS MPH feet Rate Location/Type
05:40PM 33.3119 -82.0106 279° West 213 245 5,900  Level Atlanta Center
05:41PM 33.3217 -82.0897 278° West 275 316 8,400 2,460 Climbing Atlanta Center
05:42PM 33.3358 -82.1889 280° West 293 337 10,900 2,760 Climbing Atlanta Center
05:43PM 33.3542 -82.3006 281° West 312 359 14,000 2,760 Climbing Atlanta Center
05:44PM 33.3658 -82.3997 278° West 312 359 16,500 2,220 Climbing Atlanta Center
05:45PM 33.4336 -82.6518 281° West  Level FlightAware Approximate
05:45PM 33.3794 -82.4914 280° West 312 359 18,500  Level Atlanta Center
05:46PM 33.4522 -82.7676 279° West  Level FlightAware Approximate
05:46PM 33.3933 -82.5933 279° West 312 359 20,600  Level Atlanta Center
05:47PM 33.3967 -82.6953 272° West 312 359 22,300 1,680 Climbing Atlanta Center
05:48PM 33.4103 -82.7994 279° West 312 359 24,000 1,560 Climbing Atlanta Center
05:49PM 33.4175 -82.9114 274° West 325 374 25,500 1,500 Climbing Atlanta Center
05:50PM 33.4228 -83.0233 273° West 337 388 27,100 1,500 Climbing Atlanta Center
05:51PM 33.4361 -83.1475 277° West 343 395 28,500 1,560 Climbing Atlanta Center
05:53PM 33.4404 -83.3172 276° West  Level FlightAware Approximate
05:53PM 33.4544 -83.3839 276° West 362 417 31,900  Level Atlanta Center
05:54PM 33.4611 -83.4961 274° West 355 409 33,900 1,680 Climbing Atlanta Center
05:55PM 33.4700 -83.6031 276° West 342 394 35,300 1,260 Climbing Atlanta Center
05:57PM 33.4850 -83.8197 275° West 331 381 37,800 1,140 Climbing Atlanta Center
05:58PM 33.4936 -83.9292 275° West 331 381 38,800 720 Climbing Atlanta Center
06:00PM 33.4902 -84.0982 276° West  Level FlightAware Approximate
06:00PM 33.5061 -84.1408 276° West 336 387 40,000  Level Atlanta Center
06:01PM 33.5164 -84.2656 276° West 356 410 40,000  Level Atlanta Center
06:02PM 33.5244 -84.3950 274° West 384 442 40,000  Level Atlanta Center
06:03PM 33.5322 -84.5297 274° West 401 461 40,000  Level Atlanta Center
06:04PM 33.5442 -84.6769 276° West 407 468 40,000  Level Atlanta Center
06:05PM 33.5539 -84.8092 275° West 407 468 40,000  Level Atlanta Center
06:06PM 33.5614 -84.9436 274° West 402 463 40,000  Level Atlanta Center
06:07PM 33.5708 -85.0736 275° West 402 463 40,000  Level Atlanta Center
06:08PM 33.5781 -85.2033 274° West 402 463 40,000  Level Atlanta Center
06:09PM 33.5850 -85.3331 274° West 402 463 40,000  Level Atlanta Center
06:10PM 33.5939 -85.4678 275° West 408 470 40,000  Level Atlanta Center
06:11PM 33.6008 -85.5828 274° West 400 460 40,000  Level Atlanta Center
06:12PM 33.6075 -85.7125 274° West 400 460 40,000  Level Atlanta Center
06:13PM 33.6161 -85.8397 275° West 394 453 40,000  Level Atlanta Center
06:14PM 33.6247 -85.9697 275° West 394 453 40,000  Level Atlanta Center
06:15PM 33.6289 -86.1019 272° West 394 453 40,000  Level Atlanta Center
06:16PM 33.6369 -86.2344 274° West 394 453 40,000  Level Atlanta Center
06:17PM 33.6428 -86.3644 273° West 399 459 40,000  Level Atlanta Center
06:18PM 33.6467 -86.4992 272° West 404 465 40,000  Level Atlanta Center
06:19PM 33.6542 -86.6317 274° West 404 465 40,000  Level Atlanta Center
06:20PM 33.6597 -86.7642 273° West 404 465 40,000  Level Atlanta Center
06:21PM 33.6714 -86.8944 276° West 404 465 40,000  Level Atlanta Center
06:22PM 33.7208 -87.0158 296° West 389 448 40,000  Level Atlanta Center
06:23PM 33.7742 -87.1328 299° West 394 453 40,000  Level Atlanta Center
06:25PM 33.8931 -87.3894 299° West 412 474 40,000  Level Memphis Center
06:26PM 33.9417 -87.5078 296° West 399 459 40,000  Level Memphis Center
06:27PM 34.0006 -87.6211 302° West 399 459 40,000  Level Memphis Center
06:28PM 34.0492 -87.7400 296° West 399 459 40,000  Level Memphis Center
06:29PM 34.1039 -87.8686 297° West 394 453 40,000  Level Memphis Center
06:30PM 34.1475 -87.9603 300° West 394 453 40,000  Level Memphis Center
06:31PM 34.2083 -88.0992 298° West 394 453 40,000  Level Memphis Center
06:32PM 34.2564 -88.2186 296° West 394 453 40,000  Level Memphis Center
06:33PM 34.3064 -88.3306 298° West 394 453 40,000  Level Memphis Center
06:34PM 34.3583 -88.4450 299° West 389 448 40,000  Level Memphis Center
06:35PM 34.3972 -88.5347 298° West 383 441 40,000  Level Memphis Center
06:36PM 34.4556 -88.6719 297° West 383 441 40,000  Level Memphis Center
06:37PM 34.5050 -88.7869 298° West 383 441 40,000  Level Memphis Center
06:38PM 34.5478 -88.8794 299° West 377 434 40,000  Level Memphis Center
06:39PM 34.5972 -88.9922 298° West 377 434 40,000  Level Memphis Center
06:41PM 34.6542 -89.1302 297° West  Level FlightAware Approximate
06:42PM 34.7444 -89.3361 297° West 383 441 40,000  Level Memphis Center
06:43PM 34.7933 -89.4517 297° West 383 441 40,000  Level Memphis Center
06:44PM 34.8419 -89.5650 298° West 383 441 40,000  Level Memphis Center
06:45PM 34.8928 -89.6939 296° West 388 447 40,000  Level Memphis Center
06:46PM 34.9414 -89.8125 297° West 388 447 40,000  Level Memphis Center
06:47PM 34.9919 -89.9211 300° West 404 465 40,100 480 Climbing Memphis Center
06:48PM 34.9696 -89.8942 297° West  Level FlightAware Approximate
06:48PM 35.0508 -90.0300 303° West 394 453 41,000  Level Memphis Center
06:49PM 35.1178 -90.1236 311° West 379 436 41,000  Level Memphis Center
06:50PM 35.1908 -90.2225 312° West 379 436 41,000  Level Memphis Center
06:51PM 35.2597 -90.3189 311° West 384 442 41,000  Level Memphis Center
06:52PM 35.3389 -90.4283 312° West 384 442 41,000  Level Memphis Center
06:53PM 35.4097 -90.5253 312° West 384 442 41,000  Level Memphis Center
06:54PM 35.4806 -90.6247 311° West 384 442 41,000  Level Memphis Center
06:55PM 35.5514 -90.7219 312° West 384 442 41,000  Level Memphis Center
06:56PM 35.6219 -90.8219 311° West 384 442 41,000  Level Memphis Center
06:57PM 35.6903 -90.9169 312° West 384 442 41,000  Level Memphis Center
06:58PM 35.7525 -91.0119 309° West 379 436 41,000  Level Memphis Center
07:01PM 35.8356 -91.1302 311° West  Level FlightAware Approximate
07:01PM 35.9611 -91.3058 311° West 379 436 41,000  Level Memphis Center
07:02PM 36.0189 -91.3861 312° West 384 442 41,000  Level Memphis Center
07:03PM 36.1011 -91.5078 310° West 384 442 41,000  Level Memphis Center
07:04PM 36.1711 -91.6064 311° West 384 442 41,000  Level Memphis Center
07:05PM 36.2286 -91.6872 311° West 384 442 41,000  Level Memphis Center
07:06PM 36.3089 -91.7942 313° West 384 442 41,000  Level Memphis Center
07:07PM 36.3764 -91.8958 310° West 389 448 41,000 -120 Level Memphis Center
07:08PM 36.4461 -91.9978 310° West 384 442 40,800 -300 Descending Memphis Center
07:11PM 36.6217 -92.2450 312° West 399 459 40,000 -240 Descending Kansas City Center
07:12PM 36.6925 -92.3486 310° West 395 455 40,000  Level Kansas City Center
07:13PM 36.7644 -92.4536 311° West 395 455 40,000  Level Kansas City Center
07:14PM 36.8353 -92.5578 310° West 393 452 40,000  Level Kansas City Center
07:15PM 36.9058 -92.6633 310° West 393 452 40,000  Level Kansas City Center
07:16PM 36.9758 -92.7692 310° West 393 452 40,000  Level Kansas City Center
07:17PM 37.0475 -92.8717 311° West 391 450 40,000  Level Kansas City Center
07:18PM 37.1167 -92.9775 309° West 390 449 40,000  Level Kansas City Center
07:19PM 37.2022 -93.1028 311° West 390 449 40,000  Level Kansas City Center
07:20PM 37.2717 -93.2081 310° West 389 448 40,000  Level Kansas City Center
07:21PM 37.3419 -93.3119 310° West 389 448 40,000  Level Kansas City Center
07:22PM 37.4319 -93.3886 326° Northwest 392 451 40,000  Level Kansas City Center
07:23PM 37.5275 -93.4556 331° Northwest 390 449 40,000  Level Kansas City Center
07:24PM 37.6214 -93.5222 331° Northwest 387 445 40,000  Level Kansas City Center
07:25PM 37.7186 -93.5911 331° Northwest 392 451 40,000  Level Kansas City Center
07:26PM 37.8136 -93.6589 331° Northwest 391 450 40,000  Level Kansas City Center
07:27PM 37.9072 -93.7244 331° Northwest 385 443 40,000  Level Kansas City Center
07:28PM 38.0150 -93.8011 331° Northwest 372 428 40,000  Level Kansas City Center
07:29PM 38.1042 -93.8672 330° Northwest 370 426 40,000  Level Kansas City Center
07:30PM 38.1933 -93.9322 330° Northwest 368 423 40,000  Level Kansas City Center
07:31PM 38.2833 -93.9969 331° Northwest 369 425 40,000  Level Kansas City Center
07:32PM 38.3742 -94.0619 331° Northwest 372 428 40,000  Level Kansas City Center
07:33PM 38.4719 -94.1322 331° Northwest 377 434 40,000  Level Kansas City Center
07:34PM 38.5578 -94.1964 330° Northwest 375 432 40,000  Level Kansas City Center
07:35PM 38.6594 -94.2711 330° Northwest 376 433 40,000  Level Kansas City Center
07:36PM 38.7467 -94.3339 331° Northwest 376 433 40,000  Level Kansas City Center
07:37PM 38.8472 -94.4100 329° Northwest 376 433 40,000  Level Kansas City Center
07:38PM 38.9342 -94.4736 330° Northwest 376 433 40,000  Level Kansas City Center
07:39PM 39.0350 -94.5489 330° Northwest 378 435 40,000  Level Kansas City Center
07:40PM 39.1217 -94.6139 330° Northwest 378 435 40,000 -300 Level Kansas City Center
07:41PM 39.2228 -94.6892 330° Northwest 376 433 39,400 -1,020 Descending Kansas City Center
07:43PM 39.3031 -94.7658 324° Northwest 380 437 38,000 -1,200 Descending Kansas City Center
07:44PM 39.3800 -94.8858 310° West 392 451 37,000 -540 Descending Kansas City Center
07:45PM 39.4469 -94.9911 309° West 398 458 37,000 -180 Level Kansas City Center
07:46PM 39.5142 -95.0978 309° West 403 464 36,700 -1,320 Descending Kansas City Center
07:47PM 39.5947 -95.2261 309° West 414 476 34,300 -2,280 Descending Kansas City Center
07:48PM 39.6661 -95.3400 309° West 425 489 32,100 -2,340 Descending Kansas City Center
07:49PM 39.7489 -95.4728 309° West 426 490 29,600 -2,220 Descending Kansas City Center
07:50PM 39.8192 -95.5836 310° West 417 480 27,600 -2,220 Descending Kansas City Center
07:51PM 39.8978 -95.7133 308° West 409 471 25,100 -1,920 Descending Kansas City Center
07:51PM 39.9111 -95.7367 307° West 416 479 24,700 -2,100 Descending Minneapolis Center
07:53PM 40.0347 -95.9369 309° West 377 434 20,800 -2,340 Descending Kansas City Center
07:53PM 40.0661 -95.9883 309° West 367 422 19,900 -1,800 Descending Minneapolis Center
07:54PM 40.1281 -96.0861 310° West 352 405 18,100 -1,680 Descending Minneapolis Center
07:55PM 40.1767 -96.1686 308° West 355 409 16,500 -1,920 Descending Minneapolis Center
07:56PM 40.2589 -96.2397 327° Northwest 357 411 14,400 -2,160 Descending Minneapolis Center
07:57PM 40.3097 -96.2833 327° Northwest 356 410 13,300 -1,800 Descending Minneapolis Center
07:57PM 40.3511 -96.3319 318° Northwest 352 405 12,400 -1,920 Descending Minneapolis Center
07:58PM 40.3917 -96.3539 338° Northwest 343 395 11,400 -1,680 Descending Minneapolis Center
07:58PM 40.4289 -96.3983 318° Northwest 339 390 10,700 -1,620 Descending Minneapolis Center
07:59PM 40.4583 -96.4150 337° Northwest 281 323 9,800 -1,500 Descending Minneapolis Center
07:59PM 40.4947 -96.4522 322° Northwest 304 350 9,200 -1,380 Descending Minneapolis Center
08:00PM 40.5225 -96.4714 332° Northwest 282 325 8,400 -1,500 Descending Minneapolis Center
08:00PM 40.5603 -96.5086 323° Northwest 289 333 7,700 -1,500 Descending Minneapolis Center
08:01PM 40.5867 -96.5275 331° Northwest 283 326 6,900 -1,500 Descending Minneapolis Center
08:02PM 40.6261 -96.5647 324° Northwest 284 327 6,200 -1,620 Descending Minneapolis Center
08:02PM 40.6550 -96.5861 331° Northwest 272 313 5,300 -1,920 Descending Minneapolis Center
08:03PM 40.6978 -96.6331 320° Northwest 275 316 4,300 -1,800 Descending Minneapolis Center
08:03PM 40.7047 -96.6497 299° West 240 276 3,500 -1,380 Descending Minneapolis Center
08:04PM 40.7408 -96.6950 316° Northwest 253 291 2,900 -720 Descending Minneapolis Center
08:04PM 40.7436 -96.7061 288° West 193 222 2,800 -120 Descending Minneapolis Center
08:05PM 40.7778 -96.7442 320° Northwest 224 258 2,800 -300 Level Minneapolis Center
08:05PM 40.7772 -96.7439 159° South 151 174 2,500 -1,020 Descending Minneapolis Center
08:06PM 40.8142 -96.7525 350° North 177 204 1,800 -900 Descending Minneapolis Center
08:06PM 40.8172 -96.7453 61° Northeast 120 138 1,600 -120 Descending Minneapolis Center
08:07PM 40.8481 -96.7411 North 168 193 1,700 120 Climbing Minneapolis Center
08:09PM 40.8500 -96.7500 339° North  Level FlightAware Approximate